sim
Sign-in with your pilot id or email,
or register
Callsign
Passwort

Schedule Details

Flight Number: DLH1765
Departure: Santorini Thira National Airport (LGSR) at 16:05
Arrival: Munich Airport (EDDM) at 18:55
Route: Lufthansa Passenger Schedule. Enter filed route here before submitting Pirep.

Weather Information
Getting current METAR information for LGSR 250350Z 24005KT 9999 FEW015 23/22 Q1011 RMK FEW025 FEW080 BLU
Getting current METAR information for EDDM 250350Z 21005KT 9999 -RA SCT040 13/12 Q1001 NOSIG

Schedule Frequency

Route Map